sensor_id;sensor_type;location;lat;lon;timestamp;pressure;altitude;pressure_sealevel;temperature;humidity
60820;BME280;46641;48.904;9.126;2023-02-10T00:00:52;100468.97;;;6.55;63.13
60820;BME280;46641;48.904;9.126;2023-02-10T00:05:42;100469.09;;;6.52;63.47
60820;BME280;46641;48.904;9.126;2023-02-10T00:10:33;100475.22;;;6.51;63.05
60820;BME280;46641;48.904;9.126;2023-02-10T00:15:23;100474.53;;;6.48;63.28
60820;BME280;46641;48.904;9.126;2023-02-10T00:20:13;100478.97;;;6.46;63.43
60820;BME280;46641;48.904;9.126;2023-02-10T00:25:04;100478.22;;;6.44;63.09
60820;BME280;46641;48.904;9.126;2023-02-10T00:29:54;100478.25;;;6.42;63.25
60820;BME280;46641;48.904;9.126;2023-02-10T00:34:45;100468.00;;;6.39;63.38
60820;BME280;46641;48.904;9.126;2023-02-10T00:39:35;100474.03;;;6.40;63.13
60820;BME280;46641;48.904;9.126;2023-02-10T00:44:26;100495.84;;;6.37;63.65
60820;BME280;46641;48.904;9.126;2023-02-10T00:49:16;100487.28;;;6.35;63.42
60820;BME280;46641;48.904;9.126;2023-02-10T00:54:07;100490.81;;;6.34;63.19
60820;BME280;46641;48.904;9.126;2023-02-10T00:58:57;100497.81;;;6.32;63.45
60820;BME280;46641;48.904;9.126;2023-02-10T01:03:47;100493.59;;;6.29;63.08
60820;BME280;46641;48.904;9.126;2023-02-10T01:08:37;100485.78;;;6.29;63.32
60820;BME280;46641;48.904;9.126;2023-02-10T01:13:28;100498.88;;;6.28;63.49
60820;BME280;46641;48.904;9.126;2023-02-10T01:18:19;100499.91;;;6.24;63.47
60820;BME280;46641;48.904;9.126;2023-02-10T01:23:10;100500.84;;;6.23;63.59
60820;BME280;46641;48.904;9.126;2023-02-10T01:28:01;100507.81;;;6.22;63.61
60820;BME280;46641;48.904;9.126;2023-02-10T01:32:54;100503.56;;;6.20;63.60
60820;BME280;46641;48.904;9.126;2023-02-10T01:37:45;100511.47;;;6.18;63.61
60820;BME280;46641;48.904;9.126;2023-02-10T01:42:35;100512.44;;;6.16;63.32
60820;BME280;46641;48.904;9.126;2023-02-10T01:47:25;100517.63;;;6.16;63.49
60820;BME280;46641;48.904;9.126;2023-02-10T01:52:21;100519.44;;;6.14;63.72
60820;BME280;46641;48.904;9.126;2023-02-10T01:57:12;100517.91;;;6.09;63.56
60820;BME280;46641;48.904;9.126;2023-02-10T02:02:03;100518.84;;;6.08;63.67
60820;BME280;46641;48.904;9.126;2023-02-10T02:06:56;100516.28;;;6.07;63.77
60820;BME280;46641;48.904;9.126;2023-02-10T02:12:13;100533.66;;;6.06;63.61
60820;BME280;46641;48.904;9.126;2023-02-10T02:17:25;100540.66;;;6.04;63.51
60820;BME280;46641;48.904;9.126;2023-02-10T02:23:01;100544.31;;;6.00;63.51
60820;BME280;46641;48.904;9.126;2023-02-10T02:32:43;100544.41;;;5.99;63.42
60820;BME280;46641;48.904;9.126;2023-02-10T02:37:40;100546.16;;;5.98;63.27
60820;BME280;46641;48.904;9.126;2023-02-10T02:42:32;100527.31;;;5.93;63.92
60820;BME280;46641;48.904;9.126;2023-02-10T02:47:34;100540.31;;;5.93;63.31
60820;BME280;46641;48.904;9.126;2023-02-10T02:52:57;100541.25;;;5.91;63.29
60820;BME280;46641;48.904;9.126;2023-02-10T02:57:55;100544.75;;;5.90;63.72
60820;BME280;46641;48.904;9.126;2023-02-10T03:02:47;100537.88;;;5.89;63.81
60820;BME280;46641;48.904;9.126;2023-02-10T03:07:38;100546.66;;;5.86;63.50
60820;BME280;46641;48.904;9.126;2023-02-10T03:12:28;100550.19;;;5.85;63.98
60820;BME280;46641;48.904;9.126;2023-02-10T03:17:18;100553.66;;;5.84;63.87
60820;BME280;46641;48.904;9.126;2023-02-10T03:22:09;100549.38;;;5.83;63.70
60820;BME280;46641;48.904;9.126;2023-02-10T03:26:59;100545.16;;;5.80;63.82
60820;BME280;46641;48.904;9.126;2023-02-10T03:31:49;100553.03;;;5.79;64.07
60820;BME280;46641;48.904;9.126;2023-02-10T03:36:40;100560.84;;;5.79;64.13
60820;BME280;46641;48.904;9.126;2023-02-10T03:41:30;100566.16;;;5.76;63.84
60820;BME280;46641;48.904;9.126;2023-02-10T03:46:20;100567.13;;;5.73;63.95
60820;BME280;46641;48.904;9.126;2023-02-10T03:51:11;100568.88;;;5.73;63.90
60820;BME280;46641;48.904;9.126;2023-02-10T03:56:02;100571.47;;;5.73;64.15
60820;BME280;46641;48.904;9.126;2023-02-10T04:00:52;100566.34;;;5.71;63.90
60820;BME280;46641;48.904;9.126;2023-02-10T04:05:43;100580.28;;;5.69;64.09
60820;BME280;46641;48.904;9.126;2023-02-10T04:10:33;100582.06;;;5.68;63.96
60820;BME280;46641;48.904;9.126;2023-02-10T04:15:24;100576.97;;;5.65;64.04
60820;BME280;46641;48.904;9.126;2023-02-10T04:20:14;100573.53;;;5.65;64.01
60820;BME280;46641;48.904;9.126;2023-02-10T04:25:05;100573.53;;;5.65;64.01
60820;BME280;46641;48.904;9.126;2023-02-10T04:29:56;100573.63;;;5.63;63.94
60820;BME280;46641;48.904;9.126;2023-02-10T04:34:46;100575.50;;;5.59;64.10
60820;BME280;46641;48.904;9.126;2023-02-10T04:39:36;100583.34;;;5.58;64.02
60820;BME280;46641;48.904;9.126;2023-02-10T04:44:26;100582.50;;;5.57;63.95
60820;BME280;46641;48.904;9.126;2023-02-10T04:49:17;100591.16;;;5.58;64.02
60820;BME280;46641;48.904;9.126;2023-02-10T04:54:08;100579.06;;;5.57;64.03
60820;BME280;46641;48.904;9.126;2023-02-10T04:58:58;100580.03;;;5.54;64.08
60820;BME280;46641;48.904;9.126;2023-02-10T05:03:48;100591.41;;;5.52;63.79
60820;BME280;46641;48.904;9.126;2023-02-10T05:08:39;100594.06;;;5.50;64.20
60820;BME280;46641;48.904;9.126;2023-02-10T05:13:31;100603.66;;;5.48;64.23
60820;BME280;46641;48.904;9.126;2023-02-10T05:18:22;100602.81;;;5.48;63.99
60820;BME280;46641;48.904;9.126;2023-02-10T05:23:12;100602.91;;;5.46;64.36
60820;BME280;46641;48.904;9.126;2023-02-10T05:28:02;100602.03;;;5.46;64.44
60820;BME280;46641;48.904;9.126;2023-02-10T05:32:53;100622.03;;;5.44;64.04
60820;BME280;46641;48.904;9.126;2023-02-10T05:37:43;100618.63;;;5.43;64.18
60820;BME280;46641;48.904;9.126;2023-02-10T05:42:33;100632.44;;;5.44;64.14
60820;BME280;46641;48.904;9.126;2023-02-10T05:47:25;100632.56;;;5.41;64.40
60820;BME280;46641;48.904;9.126;2023-02-10T05:52:15;100623.97;;;5.38;64.63
60820;BME280;46641;48.904;9.126;2023-02-10T05:57:06;100630.13;;;5.36;64.47
60820;BME280;46641;48.904;9.126;2023-02-10T06:01:57;100640.47;;;5.37;64.62
60820;BME280;46641;48.904;9.126;2023-02-10T06:06:48;100645.72;;;5.36;64.35
60820;BME280;46641;48.904;9.126;2023-02-10T06:11:38;100666.47;;;5.36;64.43
60820;BME280;46641;48.904;9.126;2023-02-10T06:16:28;100674.34;;;5.34;64.48
60820;BME280;46641;48.904;9.126;2023-02-10T06:21:19;100669.16;;;5.34;64.28
60820;BME280;46641;48.904;9.126;2023-02-10T06:26:10;100680.13;;;4.50;58.77
60820;BME280;46641;48.904;9.126;2023-02-10T06:31:01;100684.66;;;4.68;60.17
60820;BME280;46641;48.904;9.126;2023-02-10T06:35:51;100681.66;;;4.79;60.50
60820;BME280;46641;48.904;9.126;2023-02-10T06:40:42;100689.94;;;4.89;60.60
60820;BME280;46641;48.904;9.126;2023-02-10T06:45:32;100701.84;;;4.95;60.96
60820;BME280;46641;48.904;9.126;2023-02-10T06:50:23;100698.41;;;4.94;61.38
60820;BME280;46641;48.904;9.126;2023-02-10T06:55:14;100707.88;;;4.95;61.86
60820;BME280;46641;48.904;9.126;2023-02-10T07:00:07;100714.81;;;4.95;62.27
60820;BME280;46641;48.904;9.126;2023-02-10T07:04:58;100711.41;;;4.92;62.37
60820;BME280;46641;48.904;9.126;2023-02-10T07:09:48;100708.00;;;4.92;62.49
60820;BME280;46641;48.904;9.126;2023-02-10T07:14:38;100713.19;;;4.92;62.94
60820;BME280;46641;48.904;9.126;2023-02-10T07:19:29;100707.06;;;4.93;62.70
60820;BME280;46641;48.904;9.126;2023-02-10T07:24:20;100726.88;;;4.96;62.72
60820;BME280;46641;48.904;9.126;2023-02-10T07:29:10;100721.75;;;4.94;63.09
60820;BME280;46641;48.904;9.126;2023-02-10T07:34:01;100724.28;;;4.96;63.42
60820;BME280;46641;48.904;9.126;2023-02-10T07:38:52;100739.00;;;4.95;63.56
60820;BME280;46641;48.904;9.126;2023-02-10T07:43:42;100726.81;;;4.97;63.40
60820;BME280;46641;48.904;9.126;2023-02-10T07:48:32;100720.72;;;4.98;63.38
60820;BME280;46641;48.904;9.126;2023-02-10T07:53:23;100711.13;;;5.00;63.46
60820;BME280;46641;48.904;9.126;2023-02-10T07:58:13;100715.47;;;5.00;63.48
60820;BME280;46641;48.904;9.126;2023-02-10T08:03:04;100709.44;;;4.99;63.77
60820;BME280;46641;48.904;9.126;2023-02-10T08:07:55;100716.31;;;5.00;63.74
60820;BME280;46641;48.904;9.126;2023-02-10T08:12:46;100731.00;;;5.01;63.86
60820;BME280;46641;48.904;9.126;2023-02-10T08:17:36;100722.31;;;5.02;63.95
60820;BME280;46641;48.904;9.126;2023-02-10T08:22:28;100733.47;;;5.04;64.03
60820;BME280;46641;48.904;9.126;2023-02-10T08:27:18;100729.13;;;5.05;63.92
60820;BME280;46641;48.904;9.126;2023-02-10T08:32:09;100728.19;;;5.07;63.90
60820;BME280;46641;48.904;9.126;2023-02-10T08:36:59;100731.53;;;5.09;63.92
60820;BME280;46641;48.904;9.126;2023-02-10T08:41:49;100738.38;;;5.12;64.29
60820;BME280;46641;48.904;9.126;2023-02-10T08:46:40;100731.38;;;5.14;64.26
60820;BME280;46641;48.904;9.126;2023-02-10T08:51:30;100725.28;;;5.15;63.84
60820;BME280;46641;48.904;9.126;2023-02-10T08:56:22;100727.81;;;5.16;64.09
60820;BME280;46641;48.904;9.126;2023-02-10T09:01:20;100727.69;;;5.20;63.82
60820;BME280;46641;48.904;9.126;2023-02-10T09:06:16;100739.78;;;5.21;63.72
60820;BME280;46641;48.904;9.126;2023-02-10T09:11:08;100737.97;;;5.23;64.08
60820;BME280;46641;48.904;9.126;2023-02-10T09:15:58;100735.25;;;5.26;63.68
60820;BME280;46641;48.904;9.126;2023-02-10T09:20:49;100755.03;;;5.30;64.28
60820;BME280;46641;48.904;9.126;2023-02-10T09:25:39;100755.66;;;5.35;63.86
60820;BME280;46641;48.904;9.126;2023-02-10T09:30:29;100754.53;;;5.42;63.28
60820;BME280;46641;48.904;9.126;2023-02-10T09:35:20;100746.56;;;5.47;63.56
60820;BME280;46641;48.904;9.126;2023-02-10T09:40:32;100742.72;;;5.57;63.14
60820;BME280;46641;48.904;9.126;2023-02-10T09:45:25;100730.44;;;5.60;62.90
60820;BME280;46641;48.904;9.126;2023-02-10T09:50:30;100734.44;;;5.69;63.13
60820;BME280;46641;48.904;9.126;2023-02-10T09:55:28;100729.75;;;5.77;63.87
60820;BME280;46641;48.904;9.126;2023-02-10T10:00:39;100725.22;;;5.82;64.03
60820;BME280;46641;48.904;9.126;2023-02-10T10:05:38;100728.31;;;5.92;63.66
60820;BME280;46641;48.904;9.126;2023-02-10T10:10:37;100737.31;;;6.05;63.58
60820;BME280;46641;48.904;9.126;2023-02-10T10:15:38;100747.22;;;6.18;62.94
60820;BME280;46641;48.904;9.126;2023-02-10T10:20:43;100747.34;;;6.35;62.86
60820;BME280;46641;48.904;9.126;2023-02-10T10:26:00;100753.69;;;6.48;62.62
60820;BME280;46641;48.904;9.126;2023-02-10T10:31:16;100744.72;;;6.55;62.71
60820;BME280;46641;48.904;9.126;2023-02-10T10:36:15;100747.69;;;6.67;62.75
60820;BME280;46641;48.904;9.126;2023-02-10T10:41:11;100745.47;;;6.78;62.76
60820;BME280;46641;48.904;9.126;2023-02-10T10:46:06;100735.91;;;6.97;62.69
60820;BME280;46641;48.904;9.126;2023-02-10T10:51:03;100726.44;;;7.15;62.67
60820;BME280;46641;48.904;9.126;2023-02-10T10:55:55;100722.25;;;7.30;62.53
60820;BME280;46641;48.904;9.126;2023-02-10T11:00:51;100727.81;;;7.41;62.36
60820;BME280;46641;48.904;9.126;2023-02-10T11:05:43;100722.91;;;7.53;62.29
60820;BME280;46641;48.904;9.126;2023-02-10T11:10:51;100717.97;;;7.65;62.25
60820;BME280;46641;48.904;9.126;2023-02-10T11:15:43;100719.06;;;7.79;62.46
60820;BME280;46641;48.904;9.126;2023-02-10T11:20:35;100719.44;;;7.88;62.61
60820;BME280;46641;48.904;9.126;2023-02-10T11:25:34;100725.06;;;7.98;62.78
60820;BME280;46641;48.904;9.126;2023-02-10T11:30:31;100727.06;;;8.10;63.21
60820;BME280;46641;48.904;9.126;2023-02-10T11:35:23;100723.84;;;8.23;62.96
60820;BME280;46641;48.904;9.126;2023-02-10T11:40:25;100714.47;;;8.36;62.50
60820;BME280;46641;48.904;9.126;2023-02-10T11:45:26;100718.38;;;8.45;61.77
60820;BME280;46641;48.904;9.126;2023-02-10T11:50:26;100711.78;;;8.55;61.82
60820;BME280;46641;48.904;9.126;2023-02-10T11:55:17;100708.50;;;8.67;61.60
60820;BME280;46641;48.904;9.126;2023-02-10T12:00:15;100699.25;;;8.77;62.77
60820;BME280;46641;48.904;9.126;2023-02-10T12:10:09;100695.44;;;7.99;56.69
60820;BME280;46641;48.904;9.126;2023-02-10T12:25:37;100686.16;;;8.46;59.63
60820;BME280;46641;48.904;9.126;2023-02-10T12:35:55;100660.22;;;9.07;58.89
60820;BME280;46641;48.904;9.126;2023-02-10T12:41:04;100662.81;;;9.23;58.85
60820;BME280;46641;48.904;9.126;2023-02-10T12:46:11;100650.06;;;9.33;58.65
60820;BME280;46641;48.904;9.126;2023-02-10T13:01:17;100641.75;;;9.56;57.66
60820;BME280;46641;48.904;9.126;2023-02-10T13:06:27;100637.84;;;9.64;58.11
60820;BME280;46641;48.904;9.126;2023-02-10T13:11:31;100642.63;;;9.71;57.71
60820;BME280;46641;48.904;9.126;2023-02-10T13:16:29;100637.97;;;9.76;57.83
60820;BME280;46641;48.904;9.126;2023-02-10T13:21:52;100631.75;;;9.79;58.80
60820;BME280;46641;48.904;9.126;2023-02-10T13:32:25;100627.00;;;9.86;57.96
60820;BME280;46641;48.904;9.126;2023-02-10T13:42:28;100629.84;;;9.81;56.15
60820;BME280;46641;48.904;9.126;2023-02-10T13:47:37;100638.03;;;8.99;57.80
60820;BME280;46641;48.904;9.126;2023-02-10T13:52:31;100640.91;;;9.56;58.53
60820;BME280;46641;48.904;9.126;2023-02-10T13:57:36;100634.19;;;9.82;56.74
60820;BME280;46641;48.904;9.126;2023-02-10T14:02:27;100641.09;;;9.97;57.94
60820;BME280;46641;48.904;9.126;2023-02-10T14:12:24;100631.69;;;10.09;56.44
60820;BME280;46641;48.904;9.126;2023-02-10T14:17:25;100635.13;;;10.10;57.09
60820;BME280;46641;48.904;9.126;2023-02-10T14:22:23;100640.19;;;10.13;57.07
60820;BME280;46641;48.904;9.126;2023-02-10T14:27:15;100630.56;;;10.13;57.27
60820;BME280;46641;48.904;9.126;2023-02-10T14:32:06;100632.44;;;10.11;57.50
60820;BME280;46641;48.904;9.126;2023-02-10T14:37:00;100626.28;;;10.12;57.31
60820;BME280;46641;48.904;9.126;2023-02-10T14:41:51;100626.91;;;9.57;50.29
60820;BME280;46641;48.904;9.126;2023-02-10T14:46:46;100625.41;;;9.53;54.08
60820;BME280;46641;48.904;9.126;2023-02-10T14:51:42;100627.31;;;9.03;54.43
60820;BME280;46641;48.904;9.126;2023-02-10T14:56:33;100631.00;;;9.47;53.42
60820;BME280;46641;48.904;9.126;2023-02-10T15:01:26;100620.69;;;9.74;54.78
60820;BME280;46641;48.904;9.126;2023-02-10T15:06:19;100624.75;;;9.94;54.72
60820;BME280;46641;48.904;9.126;2023-02-10T15:11:15;100627.75;;;10.02;54.58
60820;BME280;46641;48.904;9.126;2023-02-10T15:16:27;100619.56;;;10.08;55.02
60820;BME280;46641;48.904;9.126;2023-02-10T15:21:25;100616.94;;;10.08;54.79
60820;BME280;46641;48.904;9.126;2023-02-10T15:26:28;100620.28;;;10.10;54.90
60820;BME280;46641;48.904;9.126;2023-02-10T15:31:25;100621.97;;;10.11;55.19
60820;BME280;46641;48.904;9.126;2023-02-10T15:36:29;100620.09;;;10.13;55.41
60820;BME280;46641;48.904;9.126;2023-02-10T15:41:41;100612.16;;;10.15;55.90
60820;BME280;46641;48.904;9.126;2023-02-10T15:46:33;100604.03;;;10.19;56.07
60820;BME280;46641;48.904;9.126;2023-02-10T15:51:26;100598.78;;;10.19;56.22
60820;BME280;46641;48.904;9.126;2023-02-10T15:56:16;100596.19;;;10.19;56.23
60820;BME280;46641;48.904;9.126;2023-02-10T16:01:08;100605.63;;;10.22;56.50
60820;BME280;46641;48.904;9.126;2023-02-10T16:05:58;100598.59;;;10.22;56.28
60820;BME280;46641;48.904;9.126;2023-02-10T16:10:51;100606.47;;;10.22;56.30
60820;BME280;46641;48.904;9.126;2023-02-10T16:15:44;100612.72;;;10.20;55.99
60820;BME280;46641;48.904;9.126;2023-02-10T16:20:35;100614.50;;;10.19;56.30
60820;BME280;46641;48.904;9.126;2023-02-10T16:25:26;100630.38;;;10.16;56.10
60820;BME280;46641;48.904;9.126;2023-02-10T16:30:21;100620.09;;;10.13;56.25
60820;BME280;46641;48.904;9.126;2023-02-10T16:35:12;100622.16;;;10.08;56.85
60820;BME280;46641;48.904;9.126;2023-02-10T16:40:03;100626.94;;;10.01;57.05
60820;BME280;46641;48.904;9.126;2023-02-10T16:44:54;100616.53;;;10.00;57.23
60820;BME280;46641;48.904;9.126;2023-02-10T16:49:44;100619.34;;;9.97;57.30
60820;BME280;46641;48.904;9.126;2023-02-10T16:54:34;100624.75;;;9.94;57.24
60820;BME280;46641;48.904;9.126;2023-02-10T16:59:25;100620.06;;;9.84;57.52
60820;BME280;46641;48.904;9.126;2023-02-10T17:04:15;100621.47;;;9.76;57.73
60820;BME280;46641;48.904;9.126;2023-02-10T17:09:05;100629.56;;;9.71;57.83
60820;BME280;46641;48.904;9.126;2023-02-10T17:13:55;100628.22;;;9.64;58.10
60820;BME280;46641;48.904;9.126;2023-02-10T17:18:46;100636.72;;;9.53;57.95
60820;BME280;46641;48.904;9.126;2023-02-10T17:23:36;100638.00;;;8.51;53.91
60820;BME280;46641;48.904;9.126;2023-02-10T17:28:26;100644.53;;;8.92;54.03
60820;BME280;46641;48.904;9.126;2023-02-10T17:33:25;100649.44;;;8.98;53.50
60820;BME280;46641;48.904;9.126;2023-02-10T17:38:17;100647.41;;;8.71;52.43
60820;BME280;46641;48.904;9.126;2023-02-10T17:43:26;100657.50;;;8.93;55.16
60820;BME280;46641;48.904;9.126;2023-02-10T17:48:17;100648.41;;;9.00;55.17
60820;BME280;46641;48.904;9.126;2023-02-10T17:53:07;100663.06;;;9.03;54.91
60820;BME280;46641;48.904;9.126;2023-02-10T17:57:57;100657.00;;;9.02;56.19
60820;BME280;46641;48.904;9.126;2023-02-10T18:02:48;100666.78;;;8.99;56.54
60820;BME280;46641;48.904;9.126;2023-02-10T18:07:38;100679.16;;;8.95;56.77
60820;BME280;46641;48.904;9.126;2023-02-10T18:12:28;100679.41;;;8.91;56.44
60820;BME280;46641;48.904;9.126;2023-02-10T18:17:19;100683.09;;;8.86;56.48
60820;BME280;46641;48.904;9.126;2023-02-10T18:22:11;100687.56;;;8.84;57.25
60820;BME280;46641;48.904;9.126;2023-02-10T18:27:02;100687.75;;;8.81;57.29
60820;BME280;46641;48.904;9.126;2023-02-10T18:31:52;100698.34;;;8.78;57.31
60820;BME280;46641;48.904;9.126;2023-02-10T18:36:43;100692.50;;;8.73;57.88
60820;BME280;46641;48.904;9.126;2023-02-10T18:41:33;100695.28;;;8.70;57.93
60820;BME280;46641;48.904;9.126;2023-02-10T18:46:23;100693.78;;;8.66;57.99
60820;BME280;46641;48.904;9.126;2023-02-10T18:51:16;100693.88;;;8.64;58.02
60820;BME280;46641;48.904;9.126;2023-02-10T18:56:08;100697.47;;;8.62;58.04
60820;BME280;46641;48.904;9.126;2023-02-10T19:01:06;100702.69;;;8.62;57.99
60820;BME280;46641;48.904;9.126;2023-02-10T19:05:57;100694.09;;;8.60;58.22
60820;BME280;46641;48.904;9.126;2023-02-10T19:10:47;100691.47;;;8.60;57.92
60820;BME280;46641;48.904;9.126;2023-02-10T19:15:38;100691.75;;;8.55;58.64
60820;BME280;46641;48.904;9.126;2023-02-10T19:20:28;100691.06;;;8.52;58.55
60820;BME280;46641;48.904;9.126;2023-02-10T19:25:18;100692.13;;;8.48;58.19
60820;BME280;46641;48.904;9.126;2023-02-10T19:30:09;100697.50;;;8.45;58.28
60820;BME280;46641;48.904;9.126;2023-02-10T19:34:59;100702.56;;;8.48;56.90
60820;BME280;46641;48.904;9.126;2023-02-10T19:39:50;100697.66;;;8.41;56.32
60820;BME280;46641;48.904;9.126;2023-02-10T19:44:40;100693.66;;;8.34;57.48
60820;BME280;46641;48.904;9.126;2023-02-10T19:49:30;100690.34;;;8.31;57.60
60820;BME280;46641;48.904;9.126;2023-02-10T19:54:21;100693.22;;;8.26;58.08
60820;BME280;46641;48.904;9.126;2023-02-10T19:59:11;100696.72;;;8.25;57.66
60820;BME280;46641;48.904;9.126;2023-02-10T20:04:02;100703.88;;;8.22;58.51
60820;BME280;46641;48.904;9.126;2023-02-10T20:08:53;100702.28;;;8.19;58.01
60820;BME280;46641;48.904;9.126;2023-02-10T20:13:44;100697.97;;;8.18;57.92
60820;BME280;46641;48.904;9.126;2023-02-10T20:18:35;100686.00;;;8.14;58.06
60820;BME280;46641;48.904;9.126;2023-02-10T20:23:25;100690.44;;;8.12;58.02
60820;BME280;46641;48.904;9.126;2023-02-10T20:28:16;100695.75;;;8.10;58.40
60820;BME280;46641;48.904;9.126;2023-02-10T20:33:07;100702.06;;;8.06;58.39
60820;BME280;46641;48.904;9.126;2023-02-10T20:37:57;100703.78;;;8.06;58.47
60820;BME280;46641;48.904;9.126;2023-02-10T20:42:47;100699.66;;;8.02;58.58
60820;BME280;46641;48.904;9.126;2023-02-10T20:47:39;100692.78;;;8.01;58.88
60820;BME280;46641;48.904;9.126;2023-02-10T20:52:29;100683.44;;;7.96;59.00
60820;BME280;46641;48.904;9.126;2023-02-10T20:57:19;100687.03;;;7.94;59.34
60820;BME280;46641;48.904;9.126;2023-02-10T21:02:13;100676.75;;;7.91;58.80
60820;BME280;46641;48.904;9.126;2023-02-10T21:07:04;100674.53;;;7.83;59.22
60820;BME280;46641;48.904;9.126;2023-02-10T21:11:54;100676.50;;;7.78;59.44
60820;BME280;46641;48.904;9.126;2023-02-10T21:16:44;100673.91;;;7.78;59.51
60820;BME280;46641;48.904;9.126;2023-02-10T21:21:34;100674.06;;;7.75;59.36
60820;BME280;46641;48.904;9.126;2023-02-10T21:26:25;100668.06;;;7.73;59.36
60820;BME280;46641;48.904;9.126;2023-02-10T21:31:20;100676.81;;;7.72;58.98
60820;BME280;46641;48.904;9.126;2023-02-10T21:36:25;100671.59;;;7.72;58.69
60820;BME280;46641;48.904;9.126;2023-02-10T21:41:16;100671.22;;;7.62;59.61
60820;BME280;46641;48.904;9.126;2023-02-10T21:46:25;100660.94;;;7.59;59.55
60820;BME280;46641;48.904;9.126;2023-02-10T21:51:16;100648.00;;;7.58;59.56
60820;BME280;46641;48.904;9.126;2023-02-10T21:56:06;100645.31;;;7.59;59.16
60820;BME280;46641;48.904;9.126;2023-02-10T22:00:57;100641.06;;;7.57;59.51
60820;BME280;46641;48.904;9.126;2023-02-10T22:05:54;100643.00;;;7.53;59.13
60820;BME280;46641;48.904;9.126;2023-02-10T22:10:44;100637.19;;;7.48;59.63
60820;BME280;46641;48.904;9.126;2023-02-10T22:15:35;100633.78;;;7.46;59.60
60820;BME280;46641;48.904;9.126;2023-02-10T22:20:25;100629.50;;;7.45;59.65
60820;BME280;46641;48.904;9.126;2023-02-10T22:25:15;100625.28;;;7.42;59.76
60820;BME280;46641;48.904;9.126;2023-02-10T22:30:06;100640.09;;;7.42;59.88
60820;BME280;46641;48.904;9.126;2023-02-10T22:34:57;100643.66;;;7.39;59.58
60820;BME280;46641;48.904;9.126;2023-02-10T22:39:47;100635.84;;;7.39;59.53
60820;BME280;46641;48.904;9.126;2023-02-10T22:44:37;100636.09;;;7.35;59.73
60820;BME280;46641;48.904;9.126;2023-02-10T22:49:28;100638.75;;;7.33;59.88
60820;BME280;46641;48.904;9.126;2023-02-10T22:54:18;100641.38;;;7.33;59.97
60820;BME280;46641;48.904;9.126;2023-02-10T22:59:10;100642.19;;;7.34;59.72
60820;BME280;46641;48.904;9.126;2023-02-10T23:04:02;100645.88;;;7.30;59.40
60820;BME280;46641;48.904;9.126;2023-02-10T23:08:53;100656.38;;;7.28;59.51
60820;BME280;46641;48.904;9.126;2023-02-10T23:13:44;100657.38;;;7.25;59.62
60820;BME280;46641;48.904;9.126;2023-02-10T23:18:35;100649.63;;;7.24;59.79
60820;BME280;46641;48.904;9.126;2023-02-10T23:23:25;100643.00;;;7.17;59.80
60820;BME280;46641;48.904;9.126;2023-02-10T23:28:16;100643.00;;;7.17;59.71
60820;BME280;46641;48.904;9.126;2023-02-10T23:33:07;100636.13;;;7.16;59.62
60820;BME280;46641;48.904;9.126;2023-02-10T23:37:57;100635.34;;;7.14;60.13
60820;BME280;46641;48.904;9.126;2023-02-10T23:42:48;100638.94;;;7.11;60.15
60820;BME280;46641;48.904;9.126;2023-02-10T23:47:38;100643.44;;;7.08;60.47
60820;BME280;46641;48.904;9.126;2023-02-10T23:52:31;100637.53;;;7.04;59.70
60820;BME280;46641;48.904;9.126;2023-02-10T23:57:21;100628.91;;;7.03;60.28
